sensor_id;sensor_type;location;lat;lon;timestamp;pressure;altitude;pressure_sealevel;temperature
49593;BMP280;35499;51.482;4.264;2023-02-18T00:00:58;102375.47;;;10.99
49593;BMP280;35499;51.482;4.264;2023-02-18T00:03:25;102362.66;;;11.01
49593;BMP280;35499;51.482;4.264;2023-02-18T00:05:51;102370.34;;;11.01
49593;BMP280;35499;51.482;4.264;2023-02-18T00:08:16;102374.63;;;11.02
49593;BMP280;35499;51.482;4.264;2023-02-18T00:10:42;102353.19;;;11.01
49593;BMP280;35499;51.482;4.264;2023-02-18T00:13:07;102372.91;;;11.02
49593;BMP280;35499;51.482;4.264;2023-02-18T00:15:37;102365.25;;;11.05
49593;BMP280;35499;51.482;4.264;2023-02-18T00:18:02;102360.97;;;11.06
49593;BMP280;35499;51.482;4.264;2023-02-18T00:20:28;102353.25;;;11.07
49593;BMP280;35499;51.482;4.264;2023-02-18T00:22:54;102344.69;;;11.08
49593;BMP280;35499;51.482;4.264;2023-02-18T00:25:19;102348.09;;;11.07
49593;BMP280;35499;51.482;4.264;2023-02-18T00:27:44;102342.09;;;11.07
49593;BMP280;35499;51.482;4.264;2023-02-18T00:30:10;102336.94;;;11.07
49593;BMP280;35499;51.482;4.264;2023-02-18T00:32:35;102346.38;;;11.06
49593;BMP280;35499;51.482;4.264;2023-02-18T00:35:01;102335.22;;;11.03
49593;BMP280;35499;51.482;4.264;2023-02-18T00:37:26;102344.63;;;11.02
49593;BMP280;35499;51.482;4.264;2023-02-18T00:39:52;102350.66;;;11.03
49593;BMP280;35499;51.482;4.264;2023-02-18T00:42:19;102338.66;;;11.03
49593;BMP280;35499;51.482;4.264;2023-02-18T00:44:45;102334.41;;;11.05
49593;BMP280;35499;51.482;4.264;2023-02-18T00:47:10;102329.25;;;11.05
49593;BMP280;35499;51.482;4.264;2023-02-18T00:49:35;102329.25;;;11.05
49593;BMP280;35499;51.482;4.264;2023-02-18T00:52:01;102328.38;;;11.05
49593;BMP280;35499;51.482;4.264;2023-02-18T00:54:26;102326.66;;;11.07
49593;BMP280;35499;51.482;4.264;2023-02-18T00:56:51;102330.94;;;11.06
49593;BMP280;35499;51.482;4.264;2023-02-18T00:59:17;102330.94;;;11.06
49593;BMP280;35499;51.482;4.264;2023-02-18T01:01:42;102324.09;;;11.07
49593;BMP280;35499;51.482;4.264;2023-02-18T01:04:07;102332.69;;;11.07
49593;BMP280;35499;51.482;4.264;2023-02-18T01:06:33;102323.22;;;11.06
49593;BMP280;35499;51.482;4.264;2023-02-18T01:08:58;102324.97;;;11.06
49593;BMP280;35499;51.482;4.264;2023-02-18T01:11:23;102313.81;;;11.05
49593;BMP280;35499;51.482;4.264;2023-02-18T01:13:49;102310.38;;;11.06
49593;BMP280;35499;51.482;4.264;2023-02-18T01:16:15;102305.25;;;11.06
49593;BMP280;35499;51.482;4.264;2023-02-18T01:18:41;102300.09;;;11.06
49593;BMP280;35499;51.482;4.264;2023-02-18T01:21:07;102305.25;;;11.06
49593;BMP280;35499;51.482;4.264;2023-02-18T01:23:33;102287.25;;;11.08
49593;BMP280;35499;51.482;4.264;2023-02-18T01:25:59;102290.69;;;11.08
49593;BMP280;35499;51.482;4.264;2023-02-18T01:28:24;102283.88;;;11.10
49593;BMP280;35499;51.482;4.264;2023-02-18T01:30:52;102275.28;;;11.09
49593;BMP280;35499;51.482;4.264;2023-02-18T01:33:19;102274.44;;;11.12
49593;BMP280;35499;51.482;4.264;2023-02-18T01:35:44;102272.75;;;11.14
49593;BMP280;35499;51.482;4.264;2023-02-18T01:38:10;102269.31;;;11.15
49593;BMP280;35499;51.482;4.264;2023-02-18T01:40:44;102274.47;;;11.15
49593;BMP280;35499;51.482;4.264;2023-02-18T01:43:11;102267.59;;;11.17
49593;BMP280;35499;51.482;4.264;2023-02-18T01:45:44;102262.47;;;11.17
49593;BMP280;35499;51.482;4.264;2023-02-18T01:48:19;102268.47;;;11.17
49593;BMP280;35499;51.482;4.264;2023-02-18T01:50:53;102254.75;;;11.17
49593;BMP280;35499;51.482;4.264;2023-02-18T01:53:25;102243.63;;;11.18
49593;BMP280;35499;51.482;4.264;2023-02-18T01:55:52;102249.59;;;11.17
49593;BMP280;35499;51.482;4.264;2023-02-18T01:58:19;102238.47;;;11.15
49593;BMP280;35499;51.482;4.264;2023-02-18T02:00:44;102235.88;;;11.10
49593;BMP280;35499;51.482;4.264;2023-02-18T02:03:09;102244.41;;;11.08
49593;BMP280;35499;51.482;4.264;2023-02-18T02:05:35;102237.56;;;11.06
49593;BMP280;35499;51.482;4.264;2023-02-18T02:08:01;102231.53;;;11.02
49593;BMP280;35499;51.482;4.264;2023-02-18T02:10:39;102236.66;;;10.99
49593;BMP280;35499;51.482;4.264;2023-02-18T02:13:14;102235.78;;;10.97
49593;BMP280;35499;51.482;4.264;2023-02-18T02:15:48;102217.75;;;10.96
49593;BMP280;35499;51.482;4.264;2023-02-18T02:30:36;102200.63;;;10.96
49593;BMP280;35499;51.482;4.264;2023-02-18T02:33:46;102198.94;;;10.95
49593;BMP280;35499;51.482;4.264;2023-02-18T02:36:47;102198.06;;;10.95
49593;BMP280;35499;51.482;4.264;2023-02-18T02:39:20;102195.47;;;10.93
49593;BMP280;35499;51.482;4.264;2023-02-18T02:42:12;102192.03;;;10.91
49593;BMP280;35499;51.482;4.264;2023-02-18T02:47:44;102188.56;;;10.87
49593;BMP280;35499;51.482;4.264;2023-02-18T02:50:19;102184.31;;;10.86
49593;BMP280;35499;51.482;4.264;2023-02-18T02:52:50;102181.75;;;10.86
49593;BMP280;35499;51.482;4.264;2023-02-18T02:55:16;102182.56;;;10.86
49593;BMP280;35499;51.482;4.264;2023-02-18T03:00:14;102173.16;;;10.84
49593;BMP280;35499;51.482;4.264;2023-02-18T03:03:00;102154.31;;;10.83
49593;BMP280;35499;51.482;4.264;2023-02-18T03:05:42;102149.16;;;10.83
49593;BMP280;35499;51.482;4.264;2023-02-18T03:11:05;102171.44;;;10.83
49593;BMP280;35499;51.482;4.264;2023-02-18T03:19:23;102161.09;;;10.74
49593;BMP280;35499;51.482;4.264;2023-02-18T03:21:57;102153.34;;;10.71
49593;BMP280;35499;51.482;4.264;2023-02-18T03:24:26;102144.81;;;10.71
49593;BMP280;35499;51.482;4.264;2023-02-18T03:26:58;102153.34;;;10.71
49593;BMP280;35499;51.482;4.264;2023-02-18T03:29:26;102147.38;;;10.69
49593;BMP280;35499;51.482;4.264;2023-02-18T03:31:55;102142.19;;;10.66
49593;BMP280;35499;51.482;4.264;2023-02-18T03:34:28;102139.63;;;10.66
49593;BMP280;35499;51.482;4.264;2023-02-18T03:36:55;102140.50;;;10.65
49593;BMP280;35499;51.482;4.264;2023-02-18T03:39:25;102135.38;;;10.65
49593;BMP280;35499;51.482;4.264;2023-02-18T03:41:51;102130.22;;;10.64
49593;BMP280;35499;51.482;4.264;2023-02-18T03:44:17;102140.50;;;10.65
49593;BMP280;35499;51.482;4.264;2023-02-18T03:46:43;102132.78;;;10.65
49593;BMP280;35499;51.482;4.264;2023-02-18T03:49:10;102125.09;;;10.65
49593;BMP280;35499;51.482;4.264;2023-02-18T03:51:37;102123.38;;;10.64
49593;BMP280;35499;51.482;4.264;2023-02-18T03:54:02;102126.78;;;10.63
49593;BMP280;35499;51.482;4.264;2023-02-18T03:56:28;102125.06;;;10.62
49593;BMP280;35499;51.482;4.264;2023-02-18T03:58:53;102127.63;;;10.61
49593;BMP280;35499;51.482;4.264;2023-02-18T04:01:19;102116.47;;;10.59
49593;BMP280;35499;51.482;4.264;2023-02-18T04:03:44;102112.19;;;10.59
49593;BMP280;35499;51.482;4.264;2023-02-18T04:06:10;102109.63;;;10.59
49593;BMP280;35499;51.482;4.264;2023-02-18T04:08:36;102113.88;;;10.57
49593;BMP280;35499;51.482;4.264;2023-02-18T04:11:01;102110.47;;;10.57
49593;BMP280;35499;51.482;4.264;2023-02-18T04:13:27;102113.03;;;10.57
49593;BMP280;35499;51.482;4.264;2023-02-18T04:15:52;102113.03;;;10.55
49593;BMP280;35499;51.482;4.264;2023-02-18T04:18:18;102105.28;;;10.53
49593;BMP280;35499;51.482;4.264;2023-02-18T04:20:43;102109.59;;;10.51
49593;BMP280;35499;51.482;4.264;2023-02-18T04:23:10;102107.88;;;10.50
49593;BMP280;35499;51.482;4.264;2023-02-18T04:25:35;102120.69;;;10.48
49593;BMP280;35499;51.482;4.264;2023-02-18T04:28:01;102112.97;;;10.48
49593;BMP280;35499;51.482;4.264;2023-02-18T04:30:26;102126.66;;;10.47
49593;BMP280;35499;51.482;4.264;2023-02-18T04:32:52;102118.09;;;10.47
49593;BMP280;35499;51.482;4.264;2023-02-18T04:35:18;102112.97;;;10.47
49593;BMP280;35499;51.482;4.264;2023-02-18T04:37:43;102106.13;;;10.46
49593;BMP280;35499;51.482;4.264;2023-02-18T04:40:09;102111.28;;;10.46
49593;BMP280;35499;51.482;4.264;2023-02-18T04:42:34;102112.09;;;10.46
49593;BMP280;35499;51.482;4.264;2023-02-18T04:45:00;102114.69;;;10.48
49593;BMP280;35499;51.482;4.264;2023-02-18T04:47:25;102116.41;;;10.46
49593;BMP280;35499;51.482;4.264;2023-02-18T04:49:51;102101.81;;;10.43
49593;BMP280;35499;51.482;4.264;2023-02-18T04:52:16;102106.94;;;10.40
49593;BMP280;35499;51.482;4.264;2023-02-18T04:54:42;102107.78;;;10.38
49593;BMP280;35499;51.482;4.264;2023-02-18T04:57:07;102099.19;;;10.36
49593;BMP280;35499;51.482;4.264;2023-02-18T04:59:32;102094.88;;;10.32
49593;BMP280;35499;51.482;4.264;2023-02-18T05:01:58;102097.47;;;10.31
49593;BMP280;35499;51.482;4.264;2023-02-18T05:04:23;102094.88;;;10.29
49593;BMP280;35499;51.482;4.264;2023-02-18T05:06:48;102093.16;;;10.28
49593;BMP280;35499;51.482;4.264;2023-02-18T05:09:14;102086.31;;;10.26
49593;BMP280;35499;51.482;4.264;2023-02-18T05:11:39;102082.88;;;10.25
49593;BMP280;35499;51.482;4.264;2023-02-18T05:14:05;102082.88;;;10.24
49593;BMP280;35499;51.482;4.264;2023-02-18T05:16:30;102086.28;;;10.24
49593;BMP280;35499;51.482;4.264;2023-02-18T05:18:56;102079.44;;;10.23
49593;BMP280;35499;51.482;4.264;2023-02-18T05:21:21;102077.72;;;10.24
49593;BMP280;35499;51.482;4.264;2023-02-18T05:23:46;102083.72;;;10.24
49593;BMP280;35499;51.482;4.264;2023-02-18T05:26:12;102076.88;;;10.23
49593;BMP280;35499;51.482;4.264;2023-02-18T05:28:37;102085.41;;;10.22
49593;BMP280;35499;51.482;4.264;2023-02-18T05:31:02;102084.56;;;10.23
49593;BMP280;35499;51.482;4.264;2023-02-18T05:33:28;102082.03;;;10.25
49593;BMP280;35499;51.482;4.264;2023-02-18T05:35:53;102078.59;;;10.24
49593;BMP280;35499;51.482;4.264;2023-02-18T05:38:19;102076.00;;;10.23
49593;BMP280;35499;51.482;4.264;2023-02-18T05:40:44;102068.28;;;10.21
49593;BMP280;35499;51.482;4.264;2023-02-18T05:43:10;102065.72;;;10.20
49593;BMP280;35499;51.482;4.264;2023-02-18T05:45:35;102062.31;;;10.21
49593;BMP280;35499;51.482;4.264;2023-02-18T05:48:00;102051.19;;;10.20
49593;BMP280;35499;51.482;4.264;2023-02-18T05:50:26;102039.19;;;10.19
49593;BMP280;35499;51.482;4.264;2023-02-18T05:52:51;102042.63;;;10.20
49593;BMP280;35499;51.482;4.264;2023-02-18T05:55:17;102042.59;;;10.21
49593;BMP280;35499;51.482;4.264;2023-02-18T05:57:42;102035.78;;;10.23
49593;BMP280;35499;51.482;4.264;2023-02-18T06:00:08;102044.34;;;10.22
49593;BMP280;35499;51.482;4.264;2023-02-18T06:02:34;102038.34;;;10.23
49593;BMP280;35499;51.482;4.264;2023-02-18T06:05:00;102028.06;;;10.22
49593;BMP280;35499;51.482;4.264;2023-02-18T06:07:25;102026.38;;;10.21
49593;BMP280;35499;51.482;4.264;2023-02-18T06:09:51;102036.63;;;10.19
49593;BMP280;35499;51.482;4.264;2023-02-18T06:12:16;102027.19;;;10.16
49593;BMP280;35499;51.482;4.264;2023-02-18T06:14:41;102040.00;;;10.14
49593;BMP280;35499;51.482;4.264;2023-02-18T06:17:11;102038.28;;;10.13
49593;BMP280;35499;51.482;4.264;2023-02-18T06:19:37;102041.72;;;10.11
49593;BMP280;35499;51.482;4.264;2023-02-18T06:22:02;102038.25;;;10.07
49593;BMP280;35499;51.482;4.264;2023-02-18T06:24:28;102028.00;;;10.06
49593;BMP280;35499;51.482;4.264;2023-02-18T06:26:53;102021.97;;;10.04
49593;BMP280;35499;51.482;4.264;2023-02-18T06:29:18;102029.66;;;10.04
49593;BMP280;35499;51.482;4.264;2023-02-18T06:31:44;102035.66;;;10.03
49593;BMP280;35499;51.482;4.264;2023-02-18T06:34:09;102050.22;;;10.04
49593;BMP280;35499;51.482;4.264;2023-02-18T06:36:34;102050.22;;;10.05
49593;BMP280;35499;51.482;4.264;2023-02-18T06:39:03;102052.78;;;10.07
49593;BMP280;35499;51.482;4.264;2023-02-18T06:41:28;102044.25;;;10.08
49593;BMP280;35499;51.482;4.264;2023-02-18T06:43:53;102045.97;;;10.09
49593;BMP280;35499;51.482;4.264;2023-02-18T06:46:19;102055.38;;;10.08
49593;BMP280;35499;51.482;4.264;2023-02-18T06:48:44;102060.50;;;10.08
49593;BMP280;35499;51.482;4.264;2023-02-18T06:51:10;102052.81;;;10.10
49593;BMP280;35499;51.482;4.264;2023-02-18T06:53:35;102055.38;;;10.13
49593;BMP280;35499;51.482;4.264;2023-02-18T06:56:00;102058.81;;;10.12
49593;BMP280;35499;51.482;4.264;2023-02-18T06:58:26;102057.94;;;10.10
49593;BMP280;35499;51.482;4.264;2023-02-18T07:00:51;102074.22;;;10.10
49593;BMP280;35499;51.482;4.264;2023-02-18T07:03:16;102068.19;;;10.07
49593;BMP280;35499;51.482;4.264;2023-02-18T07:05:42;102070.75;;;10.07
49593;BMP280;35499;51.482;4.264;2023-02-18T07:08:08;102076.72;;;10.04
49593;BMP280;35499;51.482;4.264;2023-02-18T07:10:33;102068.16;;;10.02
49593;BMP280;35499;51.482;4.264;2023-02-18T07:12:58;102069.84;;;10.02
49593;BMP280;35499;51.482;4.264;2023-02-18T07:15:24;102063.03;;;10.01
49593;BMP280;35499;51.482;4.264;2023-02-18T07:17:51;102057.91;;;10.01
49593;BMP280;35499;51.482;4.264;2023-02-18T07:20:17;102062.16;;;10.02
49593;BMP280;35499;51.482;4.264;2023-02-18T07:22:42;102048.44;;;9.99
49593;BMP280;35499;51.482;4.264;2023-02-18T07:25:07;102061.31;;;10.00
49593;BMP280;35499;51.482;4.264;2023-02-18T07:27:33;102057.03;;;10.01
49593;BMP280;35499;51.482;4.264;2023-02-18T07:29:58;102067.28;;;10.02
49593;BMP280;35499;51.482;4.264;2023-02-18T07:32:23;102069.84;;;10.02
49593;BMP280;35499;51.482;4.264;2023-02-18T07:34:50;102063.03;;;10.04
49593;BMP280;35499;51.482;4.264;2023-02-18T07:37:16;102074.16;;;10.03
49593;BMP280;35499;51.482;4.264;2023-02-18T07:39:42;102069.06;;;10.06
49593;BMP280;35499;51.482;4.264;2023-02-18T07:42:08;102069.91;;;10.08
49593;BMP280;35499;51.482;4.264;2023-02-18T07:44:34;102068.22;;;10.10
49593;BMP280;35499;51.482;4.264;2023-02-18T07:47:00;102062.25;;;10.11
49593;BMP280;35499;51.482;4.264;2023-02-18T07:49:26;102061.41;;;10.15
49593;BMP280;35499;51.482;4.264;2023-02-18T07:51:51;102065.72;;;10.19
49593;BMP280;35499;51.482;4.264;2023-02-18T07:54:17;102068.28;;;10.21
49593;BMP280;35499;51.482;4.264;2023-02-18T07:56:43;102061.47;;;10.23
49593;BMP280;35499;51.482;4.264;2023-02-18T07:59:09;102064.03;;;10.26
49593;BMP280;35499;51.482;4.264;2023-02-18T08:01:34;102068.38;;;10.30
49593;BMP280;35499;51.482;4.264;2023-02-18T08:04:00;102056.38;;;10.32
49593;BMP280;35499;51.482;4.264;2023-02-18T08:06:30;102058.97;;;10.38
49593;BMP280;35499;51.482;4.264;2023-02-18T08:08:57;102059.88;;;10.43
49593;BMP280;35499;51.482;4.264;2023-02-18T08:11:22;102050.47;;;10.45
49593;BMP280;35499;51.482;4.264;2023-02-18T08:13:48;102055.63;;;10.48
49593;BMP280;35499;51.482;4.264;2023-02-18T08:16:15;102063.34;;;10.52
49593;BMP280;35499;51.482;4.264;2023-02-18T08:18:40;102065.09;;;10.55
49593;BMP280;35499;51.482;4.264;2023-02-18T08:21:05;102050.53;;;10.55
49593;BMP280;35499;51.482;4.264;2023-02-18T08:23:31;102063.34;;;10.56
49593;BMP280;35499;51.482;4.264;2023-02-18T08:25:56;102058.22;;;10.56
49593;BMP280;35499;51.482;4.264;2023-02-18T08:28:22;102071.09;;;10.58
49593;BMP280;35499;51.482;4.264;2023-02-18T08:30:50;102064.25;;;10.58
49593;BMP280;35499;51.482;4.264;2023-02-18T08:33:16;102071.09;;;10.59
49593;BMP280;35499;51.482;4.264;2023-02-18T08:35:42;102059.13;;;10.60
49593;BMP280;35499;51.482;4.264;2023-02-18T08:38:08;102059.97;;;10.60
49593;BMP280;35499;51.482;4.264;2023-02-18T08:40:33;102049.69;;;10.60
49593;BMP280;35499;51.482;4.264;2023-02-18T08:42:58;102055.72;;;10.64
49593;BMP280;35499;51.482;4.264;2023-02-18T08:45:24;102052.28;;;10.65
49593;BMP280;35499;51.482;4.264;2023-02-18T08:47:49;102053.16;;;10.65
49593;BMP280;35499;51.482;4.264;2023-02-18T08:50:15;102053.13;;;10.64
49593;BMP280;35499;51.482;4.264;2023-02-18T08:52:40;102054.00;;;10.66
49593;BMP280;35499;51.482;4.264;2023-02-18T08:55:06;102061.72;;;10.69
49593;BMP280;35499;51.482;4.264;2023-02-18T08:57:31;102061.69;;;10.67
49593;BMP280;35499;51.482;4.264;2023-02-18T08:59:57;102063.44;;;10.68
49593;BMP280;35499;51.482;4.264;2023-02-18T09:02:22;102076.28;;;10.68
49593;BMP280;35499;51.482;4.264;2023-02-18T09:04:47;102068.59;;;10.70
49593;BMP280;35499;51.482;4.264;2023-02-18T09:07:13;102075.44;;;10.71
49593;BMP280;35499;51.482;4.264;2023-02-18T09:09:38;102080.56;;;10.72
49593;BMP280;35499;51.482;4.264;2023-02-18T09:12:04;102072.88;;;10.73
49593;BMP280;35499;51.482;4.264;2023-02-18T09:14:29;102078.03;;;10.75
49593;BMP280;35499;51.482;4.264;2023-02-18T09:16:56;102078.88;;;10.77
49593;BMP280;35499;51.482;4.264;2023-02-18T09:19:22;102088.34;;;10.81
49593;BMP280;35499;51.482;4.264;2023-02-18T09:21:47;102090.03;;;10.82
49593;BMP280;35499;51.482;4.264;2023-02-18T09:24:13;102081.50;;;10.86
49593;BMP280;35499;51.482;4.264;2023-02-18T09:26:38;102084.94;;;10.88
49593;BMP280;35499;51.482;4.264;2023-02-18T09:29:04;102077.25;;;10.93
49593;BMP280;35499;51.482;4.264;2023-02-18T09:31:29;102083.25;;;10.97
49593;BMP280;35499;51.482;4.264;2023-02-18T09:34:00;102075.59;;;11.06
49593;BMP280;35499;51.482;4.264;2023-02-18T09:36:26;102073.88;;;11.12
49593;BMP280;35499;51.482;4.264;2023-02-18T09:38:52;102078.19;;;11.19
49593;BMP280;35499;51.482;4.264;2023-02-18T09:41:36;102075.69;;;11.33
49593;BMP280;35499;51.482;4.264;2023-02-18T09:44:08;102078.28;;;11.42
49593;BMP280;35499;51.482;4.264;2023-02-18T09:46:36;102078.28;;;11.42
49593;BMP280;35499;51.482;4.264;2023-02-18T09:49:06;102081.72;;;11.40
49593;BMP280;35499;51.482;4.264;2023-02-18T09:51:32;102089.44;;;11.44
49593;BMP280;35499;51.482;4.264;2023-02-18T09:53:58;102093.75;;;11.45
49593;BMP280;35499;51.482;4.264;2023-02-18T09:56:29;102091.16;;;11.45
49593;BMP280;35499;51.482;4.264;2023-02-18T09:58:57;102091.16;;;11.45
49593;BMP280;35499;51.482;4.264;2023-02-18T10:04:38;102104.00;;;11.41
49593;BMP280;35499;51.482;4.264;2023-02-18T10:07:04;102110.00;;;11.40
49593;BMP280;35499;51.482;4.264;2023-02-18T10:09:34;102111.72;;;11.39
49593;BMP280;35499;51.482;4.264;2023-02-18T10:12:21;102109.16;;;11.39
49593;BMP280;35499;51.482;4.264;2023-02-18T10:14:55;102099.72;;;11.40
49593;BMP280;35499;51.482;4.264;2023-02-18T10:17:23;102116.03;;;11.40
49593;BMP280;35499;51.482;4.264;2023-02-18T10:19:51;102134.00;;;11.37
49593;BMP280;35499;51.482;4.264;2023-02-18T10:22:18;102128.84;;;11.34
49593;BMP280;35499;51.482;4.264;2023-02-18T10:24:51;102118.53;;;11.28
49593;BMP280;35499;51.482;4.264;2023-02-18T10:27:24;102119.41;;;11.32
49593;BMP280;35499;51.482;4.264;2023-02-18T10:29:50;102128.00;;;11.34
49593;BMP280;35499;51.482;4.264;2023-02-18T10:32:20;102118.56;;;11.37
49593;BMP280;35499;51.482;4.264;2023-02-18T10:40:23;102140.88;;;11.38
49593;BMP280;35499;51.482;4.264;2023-02-18T10:43:02;102140.88;;;11.41
49593;BMP280;35499;51.482;4.264;2023-02-18T10:45:48;102150.31;;;11.42
49593;BMP280;35499;51.482;4.264;2023-02-18T10:48:38;102143.47;;;11.45
49593;BMP280;35499;51.482;4.264;2023-02-18T10:51:28;102141.78;;;11.50
49593;BMP280;35499;51.482;4.264;2023-02-18T10:53:55;102143.47;;;11.51
49593;BMP280;35499;51.482;4.264;2023-02-18T10:56:39;102157.22;;;11.50
49593;BMP280;35499;51.482;4.264;2023-02-18T10:59:21;102172.66;;;11.50
49593;BMP280;35499;51.482;4.264;2023-02-18T11:01:58;102164.91;;;11.49
49593;BMP280;35499;51.482;4.264;2023-02-18T11:04:39;102170.91;;;11.46
49593;BMP280;35499;51.482;4.264;2023-02-18T11:07:20;102181.16;;;11.41
49593;BMP280;35499;51.482;4.264;2023-02-18T11:09:59;102176.88;;;11.35
49593;BMP280;35499;51.482;4.264;2023-02-18T11:12:42;102172.56;;;11.28
49593;BMP280;35499;51.482;4.264;2023-02-18T11:17:34;102163.13;;;11.27
49593;BMP280;35499;51.482;4.264;2023-02-18T11:20:25;102160.56;;;11.30
49593;BMP280;35499;51.482;4.264;2023-02-18T11:22:51;102162.31;;;11.34
49593;BMP280;35499;51.482;4.264;2023-02-18T11:25:24;102168.31;;;11.38
49593;BMP280;35499;51.482;4.264;2023-02-18T11:30:47;102164.88;;;11.42
49593;BMP280;35499;51.482;4.264;2023-02-18T11:33:17;102158.91;;;11.51
49593;BMP280;35499;51.482;4.264;2023-02-18T11:35:51;102163.22;;;11.63
49593;BMP280;35499;51.482;4.264;2023-02-18T11:38:41;102166.69;;;11.70
49593;BMP280;35499;51.482;4.264;2023-02-18T11:41:12;102164.13;;;11.78
49593;BMP280;35499;51.482;4.264;2023-02-18T11:43:43;102157.28;;;11.82
49593;BMP280;35499;51.482;4.264;2023-02-18T11:46:21;102146.97;;;11.84
49593;BMP280;35499;51.482;4.264;2023-02-18T11:48:47;102148.69;;;11.88
49593;BMP280;35499;51.482;4.264;2023-02-18T11:56:19;102162.44;;;11.90
49593;BMP280;35499;51.482;4.264;2023-02-18T11:58:46;102159.00;;;11.94
49593;BMP280;35499;51.482;4.264;2023-02-18T12:01:21;102147.00;;;11.94
49593;BMP280;35499;51.482;4.264;2023-02-18T12:03:53;102150.41;;;11.96
49593;BMP280;35499;51.482;4.264;2023-02-18T12:06:23;102151.28;;;11.94
49593;BMP280;35499;51.482;4.264;2023-02-18T12:08:54;102148.72;;;11.94
49593;BMP280;35499;51.482;4.264;2023-02-18T12:11:31;102147.00;;;11.98
49593;BMP280;35499;51.482;4.264;2023-02-18T12:13:58;102145.28;;;11.98
49593;BMP280;35499;51.482;4.264;2023-02-18T12:16:30;102144.41;;;11.96
49593;BMP280;35499;51.482;4.264;2023-02-18T12:21:57;102142.69;;;12.02
49593;BMP280;35499;51.482;4.264;2023-02-18T12:27:39;102124.69;;;12.25
49593;BMP280;35499;51.482;4.264;2023-02-18T12:30:34;102129.81;;;12.37
49593;BMP280;35499;51.482;4.264;2023-02-18T12:33:28;102124.63;;;12.46
49593;BMP280;35499;51.482;4.264;2023-02-18T12:42:04;102134.09;;;12.51
49593;BMP280;35499;51.482;4.264;2023-02-18T12:44:39;102134.97;;;12.50
49593;BMP280;35499;51.482;4.264;2023-02-18T12:52:46;102129.78;;;12.53
49593;BMP280;35499;51.482;4.264;2023-02-18T13:04:14;102129.84;;;12.30
49593;BMP280;35499;51.482;4.264;2023-02-18T13:06:57;102129.81;;;12.28
49593;BMP280;35499;51.482;4.264;2023-02-18T13:14:52;102116.06;;;12.42
49593;BMP280;35499;51.482;4.264;2023-02-18T13:17:23;102115.19;;;12.55
49593;BMP280;35499;51.482;4.264;2023-02-18T13:19:58;102108.19;;;13.01
49593;BMP280;35499;51.482;4.264;2023-02-18T13:22:28;102095.84;;;13.55
49593;BMP280;35499;51.482;4.264;2023-02-18T13:24:55;102105.91;;;13.99
49593;BMP280;35499;51.482;4.264;2023-02-18T13:27:42;102091.91;;;14.23
49593;BMP280;35499;51.482;4.264;2023-02-18T13:30:33;102089.28;;;14.29
49593;BMP280;35499;51.482;4.264;2023-02-18T13:34:07;102092.47;;;14.54
49593;BMP280;35499;51.482;4.264;2023-02-18T13:36:31;102090.31;;;14.90
49593;BMP280;35499;51.482;4.264;2023-02-18T13:39:08;102089.13;;;15.19
49593;BMP280;35499;51.482;4.264;2023-02-18T13:41:39;102087.09;;;15.39
49593;BMP280;35499;51.482;4.264;2023-02-18T13:49:12;102079.53;;;15.84
49593;BMP280;35499;51.482;4.264;2023-02-18T13:54:15;102077.81;;;15.83
49593;BMP280;35499;51.482;4.264;2023-02-18T13:56:45;102093.16;;;15.97
49593;BMP280;35499;51.482;4.264;2023-02-18T13:59:18;102077.25;;;16.18
49593;BMP280;35499;51.482;4.264;2023-02-18T14:01:47;102075.16;;;16.37
49593;BMP280;35499;51.482;4.264;2023-02-18T14:09:55;102075.94;;;15.91
49593;BMP280;35499;51.482;4.264;2023-02-18T14:22:54;102069.22;;;16.29
49593;BMP280;35499;51.482;4.264;2023-02-18T14:27:44;102061.34;;;15.85
49593;BMP280;35499;51.482;4.264;2023-02-18T14:30:25;102063.53;;;15.58
49593;BMP280;35499;51.482;4.264;2023-02-18T14:32:57;102068.25;;;15.30
49593;BMP280;35499;51.482;4.264;2023-02-18T14:41:24;102064.94;;;14.49
49593;BMP280;35499;51.482;4.264;2023-02-18T14:49:24;102071.56;;;13.85
49593;BMP280;35499;51.482;4.264;2023-02-18T14:51:52;102067.34;;;13.73
49593;BMP280;35499;51.482;4.264;2023-02-18T14:54:19;102082.06;;;13.62
49593;BMP280;35499;51.482;4.264;2023-02-18T14:57:03;102077.00;;;13.47
49593;BMP280;35499;51.482;4.264;2023-02-18T14:59:34;102076.22;;;13.34
49593;BMP280;35499;51.482;4.264;2023-02-18T15:02:00;102077.13;;;13.28
49593;BMP280;35499;51.482;4.264;2023-02-18T15:04:26;102082.34;;;13.18
49593;BMP280;35499;51.482;4.264;2023-02-18T15:07:02;102078.94;;;13.07
49593;BMP280;35499;51.482;4.264;2023-02-18T15:09:28;102075.56;;;13.00
49593;BMP280;35499;51.482;4.264;2023-02-18T15:12:03;102072.13;;;12.95
49593;BMP280;35499;51.482;4.264;2023-02-18T15:14:35;102073.88;;;12.90
49593;BMP280;35499;51.482;4.264;2023-02-18T15:17:03;102078.19;;;12.84
49593;BMP280;35499;51.482;4.264;2023-02-18T15:19:40;102081.66;;;12.78
49593;BMP280;35499;51.482;4.264;2023-02-18T15:22:14;102067.91;;;12.73
49593;BMP280;35499;51.482;4.264;2023-02-18T15:24:42;102071.38;;;12.68
49593;BMP280;35499;51.482;4.264;2023-02-18T15:27:14;102075.69;;;12.63
49593;BMP280;35499;51.482;4.264;2023-02-18T15:29:40;102073.94;;;12.58
49593;BMP280;35499;51.482;4.264;2023-02-18T15:32:15;102071.38;;;12.52
49593;BMP280;35499;51.482;4.264;2023-02-18T15:34:41;102067.97;;;12.50
49593;BMP280;35499;51.482;4.264;2023-02-18T15:37:11;102066.22;;;12.46
49593;BMP280;35499;51.482;4.264;2023-02-18T15:39:37;102057.66;;;12.43
49593;BMP280;35499;51.482;4.264;2023-02-18T15:42:17;102063.66;;;12.40
49593;BMP280;35499;51.482;4.264;2023-02-18T15:44:48;102050.81;;;12.39
49593;BMP280;35499;51.482;4.264;2023-02-18T15:47:15;102067.13;;;12.38
49593;BMP280;35499;51.482;4.264;2023-02-18T15:49:45;102061.97;;;12.36
49593;BMP280;35499;51.482;4.264;2023-02-18T15:52:11;102065.41;;;12.33
49593;BMP280;35499;51.482;4.264;2023-02-18T15:54:39;102067.16;;;12.29
49593;BMP280;35499;51.482;4.264;2023-02-18T15:57:05;102065.44;;;12.25
49593;BMP280;35499;51.482;4.264;2023-02-18T15:59:34;102072.28;;;12.20
49593;BMP280;35499;51.482;4.264;2023-02-18T16:02:18;102074.03;;;12.17